Terminal Aerodrome Forecast
Issued by NWS Chicago, IL

Home | Current Version | Previous Version | Graphics & Text | Print | Product List | Glossary On
Versions: 1 2 3 4 5 6 7 8 9 10 11 12 13 14 15 16 17 18 19 20 21
000
FTUS43 KLOT 192327
TAFRFD
TAF
KRFD 192327Z 2000/2024 22007KT P6SM FEW250
     FM200600 20010KT P6SM SCT200
     FM201600 21015G24KT P6SM FEW200=

USA.gov is the U.S. government's official web portal to all federal, state and local government web resources and services.